sensor_id;sensor_type;location;lat;lon;timestamp;temperature;humidity
3504;DHT22;1766;53.490;10.174;2022-10-23T00:01:48;18.70;54.10
3504;DHT22;1766;53.490;10.174;2022-10-23T00:03:51;18.70;54.10
3504;DHT22;1766;53.490;10.174;2022-10-23T00:05:54;18.70;54.30
3504;DHT22;1766;53.490;10.174;2022-10-23T00:07:58;18.70;54.20
3504;DHT22;1766;53.490;10.174;2022-10-23T00:10:00;18.70;54.10
3504;DHT22;1766;53.490;10.174;2022-10-23T00:12:04;18.60;53.80
3504;DHT22;1766;53.490;10.174;2022-10-23T00:14:07;18.60;53.80
3504;DHT22;1766;53.490;10.174;2022-10-23T00:16:09;18.50;53.70
3504;DHT22;1766;53.490;10.174;2022-10-23T00:18:11;18.60;53.80
3504;DHT22;1766;53.490;10.174;2022-10-23T00:20:14;18.60;53.70
3504;DHT22;1766;53.490;10.174;2022-10-23T00:22:17;18.50;53.70
3504;DHT22;1766;53.490;10.174;2022-10-23T00:24:19;18.50;53.60
3504;DHT22;1766;53.490;10.174;2022-10-23T00:26:20;18.50;53.60
3504;DHT22;1766;53.490;10.174;2022-10-23T00:28:24;18.50;53.60
3504;DHT22;1766;53.490;10.174;2022-10-23T00:30:26;18.40;53.40
3504;DHT22;1766;53.490;10.174;2022-10-23T00:32:27;18.40;53.50
3504;DHT22;1766;53.490;10.174;2022-10-23T00:34:29;18.40;53.50
3504;DHT22;1766;53.490;10.174;2022-10-23T00:36:31;18.40;53.50
3504;DHT22;1766;53.490;10.174;2022-10-23T00:38:33;18.40;53.50
3504;DHT22;1766;53.490;10.174;2022-10-23T00:40:36;18.40;53.50
3504;DHT22;1766;53.490;10.174;2022-10-23T00:42:38;18.40;53.60
3504;DHT22;1766;53.490;10.174;2022-10-23T00:47:16;18.30;53.50
3504;DHT22;1766;53.490;10.174;2022-10-23T00:49:18;18.30;53.20
3504;DHT22;1766;53.490;10.174;2022-10-23T00:51:22;18.30;53.10
3504;DHT22;1766;53.490;10.174;2022-10-23T00:53:25;18.20;53.20
3504;DHT22;1766;53.490;10.174;2022-10-23T00:55:27;18.20;53.10
3504;DHT22;1766;53.490;10.174;2022-10-23T00:57:29;18.20;53.20
3504;DHT22;1766;53.490;10.174;2022-10-23T00:59:32;18.20;53.20
3504;DHT22;1766;53.490;10.174;2022-10-23T01:01:36;18.10;53.20
3504;DHT22;1766;53.490;10.174;2022-10-23T01:03:38;18.00;53.20
3504;DHT22;1766;53.490;10.174;2022-10-23T01:05:45;18.10;53.20
3504;DHT22;1766;53.490;10.174;2022-10-23T01:07:53;18.10;53.30
3504;DHT22;1766;53.490;10.174;2022-10-23T01:10:02;18.10;53.20
3504;DHT22;1766;53.490;10.174;2022-10-23T01:12:18;18.00;53.20
3504;DHT22;1766;53.490;10.174;2022-10-23T01:14:26;18.00;53.20
3504;DHT22;1766;53.490;10.174;2022-10-23T01:16:38;18.00;53.30
3504;DHT22;1766;53.490;10.174;2022-10-23T01:18:46;18.00;53.20
3504;DHT22;1766;53.490;10.174;2022-10-23T01:20:54;18.00;53.20
3504;DHT22;1766;53.490;10.174;2022-10-23T01:25:49;17.90;53.20
3504;DHT22;1766;53.490;10.174;2022-10-23T01:28:01;17.90;53.10
3504;DHT22;1766;53.490;10.174;2022-10-23T01:30:07;17.90;53.10
3504;DHT22;1766;53.490;10.174;2022-10-23T01:32:12;17.90;53.10
3504;DHT22;1766;53.490;10.174;2022-10-23T01:34:20;17.90;53.20
3504;DHT22;1766;53.490;10.174;2022-10-23T01:36:26;17.90;53.20
3504;DHT22;1766;53.490;10.174;2022-10-23T01:38:36;17.80;53.20
3504;DHT22;1766;53.490;10.174;2022-10-23T01:40:46;17.80;53.30
3504;DHT22;1766;53.490;10.174;2022-10-23T01:42:52;17.80;53.40
3504;DHT22;1766;53.490;10.174;2022-10-23T01:45:00;17.80;54.00
3504;DHT22;1766;53.490;10.174;2022-10-23T01:47:08;17.80;53.50
3504;DHT22;1766;53.490;10.174;2022-10-23T01:49:12;17.80;53.50
3504;DHT22;1766;53.490;10.174;2022-10-23T01:51:15;17.80;53.50
3504;DHT22;1766;53.490;10.174;2022-10-23T01:53:18;17.70;53.50
3504;DHT22;1766;53.490;10.174;2022-10-23T01:55:21;17.80;53.50
3504;DHT22;1766;53.490;10.174;2022-10-23T01:57:26;17.80;53.50
3504;DHT22;1766;53.490;10.174;2022-10-23T01:59:33;17.80;53.60
3504;DHT22;1766;53.490;10.174;2022-10-23T02:01:40;17.80;53.70
3504;DHT22;1766;53.490;10.174;2022-10-23T02:03:44;17.80;53.70
3504;DHT22;1766;53.490;10.174;2022-10-23T02:05:47;17.80;53.50
3504;DHT22;1766;53.490;10.174;2022-10-23T02:07:49;17.80;53.50
3504;DHT22;1766;53.490;10.174;2022-10-23T02:09:52;17.70;53.50
3504;DHT22;1766;53.490;10.174;2022-10-23T02:11:57;17.80;53.60
3504;DHT22;1766;53.490;10.174;2022-10-23T02:14:07;17.70;53.60
3504;DHT22;1766;53.490;10.174;2022-10-23T02:16:20;17.60;53.40
3504;DHT22;1766;53.490;10.174;2022-10-23T02:18:35;17.70;53.60
3504;DHT22;1766;53.490;10.174;2022-10-23T02:20:43;17.60;53.70
3504;DHT22;1766;53.490;10.174;2022-10-23T02:22:54;17.60;53.70
3504;DHT22;1766;53.490;10.174;2022-10-23T02:25:03;17.60;53.80
3504;DHT22;1766;53.490;10.174;2022-10-23T02:27:11;17.50;53.70
3504;DHT22;1766;53.490;10.174;2022-10-23T02:29:20;17.60;53.90
3504;DHT22;1766;53.490;10.174;2022-10-23T02:31:26;17.50;53.80
3504;DHT22;1766;53.490;10.174;2022-10-23T02:33:29;17.60;53.70
3504;DHT22;1766;53.490;10.174;2022-10-23T02:35:32;17.60;53.90
3504;DHT22;1766;53.490;10.174;2022-10-23T02:37:33;17.60;53.80
3504;DHT22;1766;53.490;10.174;2022-10-23T02:39:35;17.60;54.00
3504;DHT22;1766;53.490;10.174;2022-10-23T02:41:41;17.50;54.00
3504;DHT22;1766;53.490;10.174;2022-10-23T02:43:50;17.50;54.10
3504;DHT22;1766;53.490;10.174;2022-10-23T02:46:04;17.50;54.10
3504;DHT22;1766;53.490;10.174;2022-10-23T02:48:14;17.50;54.10
3504;DHT22;1766;53.490;10.174;2022-10-23T02:50:26;17.50;54.10
3504;DHT22;1766;53.490;10.174;2022-10-23T02:52:37;17.50;54.10
3504;DHT22;1766;53.490;10.174;2022-10-23T02:54:57;17.40;54.00
3504;DHT22;1766;53.490;10.174;2022-10-23T02:57:13;17.50;54.00
3504;DHT22;1766;53.490;10.174;2022-10-23T02:59:22;17.50;54.40
3504;DHT22;1766;53.490;10.174;2022-10-23T03:01:35;17.50;53.90
3504;DHT22;1766;53.490;10.174;2022-10-23T03:03:43;17.50;53.80
3504;DHT22;1766;53.490;10.174;2022-10-23T03:05:47;17.50;53.70
3504;DHT22;1766;53.490;10.174;2022-10-23T03:07:49;17.40;53.50
3504;DHT22;1766;53.490;10.174;2022-10-23T03:09:52;17.50;53.60
3504;DHT22;1766;53.490;10.174;2022-10-23T03:11:54;17.40;53.50
3504;DHT22;1766;53.490;10.174;2022-10-23T03:13:55;17.40;53.60
3504;DHT22;1766;53.490;10.174;2022-10-23T03:15:57;17.40;53.50
3504;DHT22;1766;53.490;10.174;2022-10-23T03:17:59;17.40;53.50
3504;DHT22;1766;53.490;10.174;2022-10-23T03:20:01;17.40;53.50
3504;DHT22;1766;53.490;10.174;2022-10-23T03:22:04;17.30;53.40
3504;DHT22;1766;53.490;10.174;2022-10-23T03:24:06;17.40;53.50
3504;DHT22;1766;53.490;10.174;2022-10-23T03:26:08;17.40;53.40
3504;DHT22;1766;53.490;10.174;2022-10-23T03:28:10;17.30;53.30
3504;DHT22;1766;53.490;10.174;2022-10-23T03:30:12;17.30;53.20
3504;DHT22;1766;53.490;10.174;2022-10-23T03:32:13;17.30;53.20
3504;DHT22;1766;53.490;10.174;2022-10-23T03:34:15;17.30;53.10
3504;DHT22;1766;53.490;10.174;2022-10-23T03:36:18;17.30;53.10
3504;DHT22;1766;53.490;10.174;2022-10-23T03:38:21;17.20;53.00
3504;DHT22;1766;53.490;10.174;2022-10-23T03:40:23;17.20;52.90
3504;DHT22;1766;53.490;10.174;2022-10-23T03:42:28;17.20;53.00
3504;DHT22;1766;53.490;10.174;2022-10-23T03:44:29;17.20;52.90
3504;DHT22;1766;53.490;10.174;2022-10-23T03:46:31;17.20;52.90
3504;DHT22;1766;53.490;10.174;2022-10-23T03:48:33;17.10;53.10
3504;DHT22;1766;53.490;10.174;2022-10-23T03:50:37;17.10;53.20
3504;DHT22;1766;53.490;10.174;2022-10-23T03:52:39;17.00;53.30
3504;DHT22;1766;53.490;10.174;2022-10-23T03:54:42;17.00;53.40
3504;DHT22;1766;53.490;10.174;2022-10-23T03:56:44;17.00;53.40
3504;DHT22;1766;53.490;10.174;2022-10-23T03:58:46;17.00;53.50
3504;DHT22;1766;53.490;10.174;2022-10-23T04:00:48;16.90;53.60
3504;DHT22;1766;53.490;10.174;2022-10-23T04:02:49;17.00;53.80
3504;DHT22;1766;53.490;10.174;2022-10-23T04:04:51;17.00;53.70
3504;DHT22;1766;53.490;10.174;2022-10-23T04:06:54;17.00;53.70
3504;DHT22;1766;53.490;10.174;2022-10-23T04:08:56;17.00;53.60
3504;DHT22;1766;53.490;10.174;2022-10-23T04:10:59;17.00;53.50
3504;DHT22;1766;53.490;10.174;2022-10-23T04:13:01;17.00;53.40
3504;DHT22;1766;53.490;10.174;2022-10-23T04:15:03;17.00;53.40
3504;DHT22;1766;53.490;10.174;2022-10-23T04:17:05;17.10;53.50
3504;DHT22;1766;53.490;10.174;2022-10-23T04:19:07;16.90;53.10
3504;DHT22;1766;53.490;10.174;2022-10-23T04:21:10;17.00;53.30
3504;DHT22;1766;53.490;10.174;2022-10-23T04:23:12;16.90;53.10
3504;DHT22;1766;53.490;10.174;2022-10-23T04:25:14;17.00;53.10
3504;DHT22;1766;53.490;10.174;2022-10-23T04:27:28;16.90;53.20
3504;DHT22;1766;53.490;10.174;2022-10-23T04:29:29;16.90;53.20
3504;DHT22;1766;53.490;10.174;2022-10-23T04:31:32;16.90;53.40
3504;DHT22;1766;53.490;10.174;2022-10-23T04:33:33;16.90;53.40
3504;DHT22;1766;53.490;10.174;2022-10-23T04:35:35;16.90;53.50
3504;DHT22;1766;53.490;10.174;2022-10-23T04:37:37;16.80;53.40
3504;DHT22;1766;53.490;10.174;2022-10-23T04:39:39;16.90;53.60
3504;DHT22;1766;53.490;10.174;2022-10-23T04:41:40;16.80;53.50
3504;DHT22;1766;53.490;10.174;2022-10-23T04:43:43;16.90;53.50
3504;DHT22;1766;53.490;10.174;2022-10-23T04:45:47;16.80;53.30
3504;DHT22;1766;53.490;10.174;2022-10-23T04:47:49;16.80;53.40
3504;DHT22;1766;53.490;10.174;2022-10-23T04:49:52;16.80;53.40
3504;DHT22;1766;53.490;10.174;2022-10-23T04:51:54;16.80;53.40
3504;DHT22;1766;53.490;10.174;2022-10-23T04:53:56;16.80;53.50
3504;DHT22;1766;53.490;10.174;2022-10-23T04:55:58;16.80;53.70
3504;DHT22;1766;53.490;10.174;2022-10-23T04:58:01;16.70;53.60
3504;DHT22;1766;53.490;10.174;2022-10-23T05:00:07;16.70;53.40
3504;DHT22;1766;53.490;10.174;2022-10-23T05:02:10;16.60;53.20
3504;DHT22;1766;53.490;10.174;2022-10-23T05:04:11;16.70;53.20
3504;DHT22;1766;53.490;10.174;2022-10-23T05:06:14;16.70;53.40
3504;DHT22;1766;53.490;10.174;2022-10-23T05:08:15;16.70;53.40
3504;DHT22;1766;53.490;10.174;2022-10-23T05:10:17;16.60;53.40
3504;DHT22;1766;53.490;10.174;2022-10-23T05:12:19;16.70;53.50
3504;DHT22;1766;53.490;10.174;2022-10-23T05:14:22;16.70;53.30
3504;DHT22;1766;53.490;10.174;2022-10-23T05:16:32;16.70;53.20
3504;DHT22;1766;53.490;10.174;2022-10-23T05:18:42;16.80;53.40
3504;DHT22;1766;53.490;10.174;2022-10-23T05:20:47;16.70;53.20
3504;DHT22;1766;53.490;10.174;2022-10-23T05:22:51;16.70;53.10
3504;DHT22;1766;53.490;10.174;2022-10-23T05:24:56;16.70;53.10
3504;DHT22;1766;53.490;10.174;2022-10-23T05:26:58;16.70;52.60
3504;DHT22;1766;53.490;10.174;2022-10-23T05:28:59;16.70;52.90
3504;DHT22;1766;53.490;10.174;2022-10-23T05:31:03;16.70;52.80
3504;DHT22;1766;53.490;10.174;2022-10-23T05:33:07;16.60;52.90
3504;DHT22;1766;53.490;10.174;2022-10-23T05:35:12;16.60;52.90
3504;DHT22;1766;53.490;10.174;2022-10-23T05:37:17;16.60;53.10
3504;DHT22;1766;53.490;10.174;2022-10-23T05:39:19;16.60;53.20
3504;DHT22;1766;53.490;10.174;2022-10-23T05:41:21;16.60;53.10
3504;DHT22;1766;53.490;10.174;2022-10-23T05:43:23;16.60;53.10
3504;DHT22;1766;53.490;10.174;2022-10-23T05:45:26;16.50;53.10
3504;DHT22;1766;53.490;10.174;2022-10-23T05:47:28;16.50;53.10
3504;DHT22;1766;53.490;10.174;2022-10-23T05:49:32;16.60;53.50
3504;DHT22;1766;53.490;10.174;2022-10-23T05:51:35;16.60;54.10
3504;DHT22;1766;53.490;10.174;2022-10-23T05:53:38;16.70;54.60
3504;DHT22;1766;53.490;10.174;2022-10-23T05:55:40;16.80;54.80
3504;DHT22;1766;53.490;10.174;2022-10-23T05:57:41;16.80;54.60
3504;DHT22;1766;53.490;10.174;2022-10-23T05:59:43;16.80;54.90
3504;DHT22;1766;53.490;10.174;2022-10-23T06:01:45;16.80;54.00
3504;DHT22;1766;53.490;10.174;2022-10-23T06:03:47;16.70;53.60
3504;DHT22;1766;53.490;10.174;2022-10-23T06:05:51;16.80;53.70
3504;DHT22;1766;53.490;10.174;2022-10-23T06:07:56;16.60;53.40
3504;DHT22;1766;53.490;10.174;2022-10-23T06:09:58;16.70;53.50
3504;DHT22;1766;53.490;10.174;2022-10-23T06:12:00;16.70;53.30
3504;DHT22;1766;53.490;10.174;2022-10-23T06:14:02;16.70;53.30
3504;DHT22;1766;53.490;10.174;2022-10-23T06:16:08;16.70;53.30
3504;DHT22;1766;53.490;10.174;2022-10-23T06:18:10;16.60;53.30
3504;DHT22;1766;53.490;10.174;2022-10-23T06:20:12;16.80;53.40
3504;DHT22;1766;53.490;10.174;2022-10-23T06:22:15;16.60;53.20
3504;DHT22;1766;53.490;10.174;2022-10-23T06:24:17;16.70;53.40
3504;DHT22;1766;53.490;10.174;2022-10-23T06:26:19;16.70;53.60
3504;DHT22;1766;53.490;10.174;2022-10-23T06:28:20;16.70;53.70
3504;DHT22;1766;53.490;10.174;2022-10-23T06:30:22;16.70;53.80
3504;DHT22;1766;53.490;10.174;2022-10-23T06:32:24;16.70;53.90
3504;DHT22;1766;53.490;10.174;2022-10-23T06:34:26;16.70;53.90
3504;DHT22;1766;53.490;10.174;2022-10-23T06:36:28;16.80;54.10
3504;DHT22;1766;53.490;10.174;2022-10-23T06:38:31;16.80;54.30
3504;DHT22;1766;53.490;10.174;2022-10-23T06:40:36;16.80;54.40
3504;DHT22;1766;53.490;10.174;2022-10-23T06:42:45;17.00;54.60
3504;DHT22;1766;53.490;10.174;2022-10-23T06:44:47;16.80;54.30
3504;DHT22;1766;53.490;10.174;2022-10-23T06:46:49;16.80;54.40
3504;DHT22;1766;53.490;10.174;2022-10-23T06:48:51;16.90;54.60
3504;DHT22;1766;53.490;10.174;2022-10-23T06:50:54;16.90;54.60
3504;DHT22;1766;53.490;10.174;2022-10-23T06:52:56;16.90;54.60
3504;DHT22;1766;53.490;10.174;2022-10-23T06:54:59;16.90;54.50
3504;DHT22;1766;53.490;10.174;2022-10-23T06:57:01;16.80;54.40
3504;DHT22;1766;53.490;10.174;2022-10-23T06:59:02;17.00;54.60
3504;DHT22;1766;53.490;10.174;2022-10-23T07:01:10;16.90;54.50
3504;DHT22;1766;53.490;10.174;2022-10-23T07:03:12;16.90;54.70
3504;DHT22;1766;53.490;10.174;2022-10-23T07:05:14;17.00;54.80
3504;DHT22;1766;53.490;10.174;2022-10-23T07:07:16;17.00;54.80
3504;DHT22;1766;53.490;10.174;2022-10-23T07:09:18;17.00;54.90
3504;DHT22;1766;53.490;10.174;2022-10-23T07:11:21;17.10;55.00
3504;DHT22;1766;53.490;10.174;2022-10-23T07:13:23;17.00;55.10
3504;DHT22;1766;53.490;10.174;2022-10-23T07:15:25;17.10;55.10
3504;DHT22;1766;53.490;10.174;2022-10-23T07:17:27;17.20;55.20
3504;DHT22;1766;53.490;10.174;2022-10-23T07:19:29;17.10;55.40
3504;DHT22;1766;53.490;10.174;2022-10-23T07:21:33;17.20;55.40
3504;DHT22;1766;53.490;10.174;2022-10-23T07:23:36;17.10;55.50
3504;DHT22;1766;53.490;10.174;2022-10-23T07:25:38;17.20;55.70
3504;DHT22;1766;53.490;10.174;2022-10-23T07:27:41;17.20;55.80
3504;DHT22;1766;53.490;10.174;2022-10-23T07:29:43;17.20;55.90
3504;DHT22;1766;53.490;10.174;2022-10-23T07:31:46;17.30;55.90
3504;DHT22;1766;53.490;10.174;2022-10-23T07:33:49;17.40;56.20
3504;DHT22;1766;53.490;10.174;2022-10-23T07:35:52;17.40;56.30
3504;DHT22;1766;53.490;10.174;2022-10-23T07:37:54;17.50;56.40
3504;DHT22;1766;53.490;10.174;2022-10-23T07:39:56;17.60;56.60
3504;DHT22;1766;53.490;10.174;2022-10-23T07:41:57;17.60;56.50
3504;DHT22;1766;53.490;10.174;2022-10-23T07:44:01;17.70;56.70
3504;DHT22;1766;53.490;10.174;2022-10-23T07:46:03;17.70;56.50
3504;DHT22;1766;53.490;10.174;2022-10-23T07:48:05;17.70;56.50
3504;DHT22;1766;53.490;10.174;2022-10-23T07:50:07;17.80;56.50
3504;DHT22;1766;53.490;10.174;2022-10-23T07:52:09;17.80;56.60
3504;DHT22;1766;53.490;10.174;2022-10-23T07:54:11;17.80;56.70
3504;DHT22;1766;53.490;10.174;2022-10-23T07:56:15;17.90;56.90
3504;DHT22;1766;53.490;10.174;2022-10-23T07:58:17;17.90;57.20
3504;DHT22;1766;53.490;10.174;2022-10-23T08:00:20;17.60;57.00
3504;DHT22;1766;53.490;10.174;2022-10-23T08:02:22;18.00;57.30
3504;DHT22;1766;53.490;10.174;2022-10-23T08:04:25;18.10;57.60
3504;DHT22;1766;53.490;10.174;2022-10-23T08:06:27;18.10;57.60
3504;DHT22;1766;53.490;10.174;2022-10-23T08:08:29;18.20;57.80
3504;DHT22;1766;53.490;10.174;2022-10-23T08:10:31;18.30;57.90
3504;DHT22;1766;53.490;10.174;2022-10-23T08:12:32;18.30;57.90
3504;DHT22;1766;53.490;10.174;2022-10-23T08:14:34;18.40;58.00
3504;DHT22;1766;53.490;10.174;2022-10-23T08:16:38;18.50;58.20
3504;DHT22;1766;53.490;10.174;2022-10-23T08:18:39;18.50;58.20
3504;DHT22;1766;53.490;10.174;2022-10-23T08:20:43;18.50;58.30
3504;DHT22;1766;53.490;10.174;2022-10-23T08:22:46;18.70;58.70
3504;DHT22;1766;53.490;10.174;2022-10-23T08:24:47;18.70;58.70
3504;DHT22;1766;53.490;10.174;2022-10-23T08:26:49;18.80;58.70
3504;DHT22;1766;53.490;10.174;2022-10-23T08:28:51;18.80;58.80
3504;DHT22;1766;53.490;10.174;2022-10-23T08:30:54;18.90;59.10
3504;DHT22;1766;53.490;10.174;2022-10-23T08:32:57;19.00;59.20
3504;DHT22;1766;53.490;10.174;2022-10-23T08:34:59;19.00;59.20
3504;DHT22;1766;53.490;10.174;2022-10-23T08:37:01;19.20;59.40
3504;DHT22;1766;53.490;10.174;2022-10-23T08:39:02;19.30;59.60
3504;DHT22;1766;53.490;10.174;2022-10-23T08:41:05;19.40;59.90
3504;DHT22;1766;53.490;10.174;2022-10-23T08:43:13;19.50;60.00
3504;DHT22;1766;53.490;10.174;2022-10-23T08:45:27;19.60;60.40
3504;DHT22;1766;53.490;10.174;2022-10-23T08:47:35;19.80;60.60
3504;DHT22;1766;53.490;10.174;2022-10-23T08:49:46;19.80;60.40
3504;DHT22;1766;53.490;10.174;2022-10-23T08:51:53;19.90;60.30
3504;DHT22;1766;53.490;10.174;2022-10-23T08:54:01;19.90;60.30
3504;DHT22;1766;53.490;10.174;2022-10-23T08:56:11;20.00;60.30
3504;DHT22;1766;53.490;10.174;2022-10-23T08:58:16;20.00;60.50
3504;DHT22;1766;53.490;10.174;2022-10-23T09:00:20;20.10;60.70
3504;DHT22;1766;53.490;10.174;2022-10-23T09:02:25;20.10;60.60
3504;DHT22;1766;53.490;10.174;2022-10-23T09:04:28;20.20;60.80
3504;DHT22;1766;53.490;10.174;2022-10-23T09:06:37;20.30;60.90
3504;DHT22;1766;53.490;10.174;2022-10-23T09:08:48;20.40;61.10
3504;DHT22;1766;53.490;10.174;2022-10-23T09:11:01;20.50;61.00
3504;DHT22;1766;53.490;10.174;2022-10-23T09:13:29;20.60;61.20
3504;DHT22;1766;53.490;10.174;2022-10-23T09:15:43;20.70;61.50
3504;DHT22;1766;53.490;10.174;2022-10-23T09:17:51;20.80;61.20
3504;DHT22;1766;53.490;10.174;2022-10-23T09:19:59;20.90;61.40
3504;DHT22;1766;53.490;10.174;2022-10-23T09:22:10;20.90;61.30
3504;DHT22;1766;53.490;10.174;2022-10-23T09:24:14;21.00;61.30
3504;DHT22;1766;53.490;10.174;2022-10-23T09:26:18;21.10;61.50
3504;DHT22;1766;53.490;10.174;2022-10-23T09:28:22;21.20;61.50
3504;DHT22;1766;53.490;10.174;2022-10-23T09:30:27;21.20;61.50
3504;DHT22;1766;53.490;10.174;2022-10-23T09:32:33;21.30;61.50
3504;DHT22;1766;53.490;10.174;2022-10-23T09:34:36;21.30;61.60
3504;DHT22;1766;53.490;10.174;2022-10-23T09:36:48;21.50;61.60
3504;DHT22;1766;53.490;10.174;2022-10-23T09:38:54;21.50;62.00
3504;DHT22;1766;53.490;10.174;2022-10-23T09:41:01;21.60;61.80
3504;DHT22;1766;53.490;10.174;2022-10-23T09:43:13;21.70;61.80
3504;DHT22;1766;53.490;10.174;2022-10-23T09:45:22;21.70;61.70
3504;DHT22;1766;53.490;10.174;2022-10-23T09:47:25;21.80;62.40
3504;DHT22;1766;53.490;10.174;2022-10-23T09:49:29;21.90;61.60
3504;DHT22;1766;53.490;10.174;2022-10-23T09:51:32;21.90;61.70
3504;DHT22;1766;53.490;10.174;2022-10-23T09:53:37;21.90;61.60
3504;DHT22;1766;53.490;10.174;2022-10-23T09:55:41;22.00;61.80
3504;DHT22;1766;53.490;10.174;2022-10-23T09:57:44;22.10;61.30
3504;DHT22;1766;53.490;10.174;2022-10-23T09:59:50;22.10;61.40
3504;DHT22;1766;53.490;10.174;2022-10-23T10:01:56;22.10;61.20
3504;DHT22;1766;53.490;10.174;2022-10-23T10:03:59;22.10;61.20
3504;DHT22;1766;53.490;10.174;2022-10-23T10:06:02;22.20;61.10
3504;DHT22;1766;53.490;10.174;2022-10-23T10:08:10;22.30;61.50
3504;DHT22;1766;53.490;10.174;2022-10-23T10:10:14;22.40;61.30
3504;DHT22;1766;53.490;10.174;2022-10-23T10:12:42;22.40;60.90
3504;DHT22;1766;53.490;10.174;2022-10-23T10:14:54;23.10;61.60
3504;DHT22;1766;53.490;10.174;2022-10-23T10:17:05;22.50;60.70
3504;DHT22;1766;53.490;10.174;2022-10-23T10:19:22;22.50;60.60
3504;DHT22;1766;53.490;10.174;2022-10-23T10:21:36;22.60;60.60
3504;DHT22;1766;53.490;10.174;2022-10-23T10:23:46;22.70;60.50
3504;DHT22;1766;53.490;10.174;2022-10-23T10:26:00;22.80;60.40
3504;DHT22;1766;53.490;10.174;2022-10-23T10:28:20;22.90;60.40
3504;DHT22;1766;53.490;10.174;2022-10-23T10:30:35;23.00;60.10
3504;DHT22;1766;53.490;10.174;2022-10-23T10:32:47;23.00;59.60
3504;DHT22;1766;53.490;10.174;2022-10-23T10:34:56;23.00;59.20
3504;DHT22;1766;53.490;10.174;2022-10-23T10:37:09;23.10;59.20
3504;DHT22;1766;53.490;10.174;2022-10-23T10:39:28;23.10;58.90
3504;DHT22;1766;53.490;10.174;2022-10-23T10:41:45;23.00;58.70
3504;DHT22;1766;53.490;10.174;2022-10-23T10:44:04;23.10;58.90
3504;DHT22;1766;53.490;10.174;2022-10-23T10:46:17;23.20;59.00
3504;DHT22;1766;53.490;10.174;2022-10-23T10:48:38;23.40;59.10
3504;DHT22;1766;53.490;10.174;2022-10-23T10:50:45;23.40;59.20
3504;DHT22;1766;53.490;10.174;2022-10-23T10:52:57;23.60;59.00
3504;DHT22;1766;53.490;10.174;2022-10-23T10:55:13;23.70;59.00
3504;DHT22;1766;53.490;10.174;2022-10-23T10:57:31;23.80;58.80
3504;DHT22;1766;53.490;10.174;2022-10-23T10:59:37;23.90;58.60
3504;DHT22;1766;53.490;10.174;2022-10-23T11:01:45;24.00;58.60
3504;DHT22;1766;53.490;10.174;2022-10-23T11:03:54;24.00;58.30
3504;DHT22;1766;53.490;10.174;2022-10-23T11:05:59;24.00;57.90
3504;DHT22;1766;53.490;10.174;2022-10-23T11:08:06;24.10;57.60
3504;DHT22;1766;53.490;10.174;2022-10-23T11:10:16;24.20;57.50
3504;DHT22;1766;53.490;10.174;2022-10-23T11:12:26;24.30;57.50
3504;DHT22;1766;53.490;10.174;2022-10-23T11:14:31;24.50;57.40
3504;DHT22;1766;53.490;10.174;2022-10-23T11:16:36;24.70;56.90
3504;DHT22;1766;53.490;10.174;2022-10-23T11:18:41;25.10;56.20
3504;DHT22;1766;53.490;10.174;2022-10-23T11:20:53;25.50;55.60
3504;DHT22;1766;53.490;10.174;2022-10-23T11:23:04;26.00;54.80
3504;DHT22;1766;53.490;10.174;2022-10-23T11:25:26;26.30;54.00
3504;DHT22;1766;53.490;10.174;2022-10-23T11:27:47;26.50;53.30
3504;DHT22;1766;53.490;10.174;2022-10-23T11:30:09;26.50;52.90
3504;DHT22;1766;53.490;10.174;2022-10-23T11:32:28;26.50;52.90
3504;DHT22;1766;53.490;10.174;2022-10-23T11:34:47;26.60;52.70
3504;DHT22;1766;53.490;10.174;2022-10-23T11:36:58;26.60;52.20
3504;DHT22;1766;53.490;10.174;2022-10-23T11:39:16;26.60;51.80
3504;DHT22;1766;53.490;10.174;2022-10-23T11:41:22;26.60;51.70
3504;DHT22;1766;53.490;10.174;2022-10-23T11:43:27;26.70;51.50
3504;DHT22;1766;53.490;10.174;2022-10-23T11:45:32;26.60;51.10
3504;DHT22;1766;53.490;10.174;2022-10-23T11:47:38;26.70;51.00
3504;DHT22;1766;53.490;10.174;2022-10-23T11:49:41;26.60;50.50
3504;DHT22;1766;53.490;10.174;2022-10-23T11:51:42;26.60;50.20
3504;DHT22;1766;53.490;10.174;2022-10-23T11:53:44;26.50;50.10
3504;DHT22;1766;53.490;10.174;2022-10-23T11:56:02;26.40;50.00
3504;DHT22;1766;53.490;10.174;2022-10-23T11:58:16;26.30;50.60
3504;DHT22;1766;53.490;10.174;2022-10-23T12:00:22;26.40;50.00
3504;DHT22;1766;53.490;10.174;2022-10-23T12:02:30;26.40;49.60
3504;DHT22;1766;53.490;10.174;2022-10-23T12:04:39;26.40;49.50
3504;DHT22;1766;53.490;10.174;2022-10-23T12:06:47;26.50;49.30
3504;DHT22;1766;53.490;10.174;2022-10-23T12:08:52;26.60;49.20
3504;DHT22;1766;53.490;10.174;2022-10-23T12:10:56;26.80;49.20
3504;DHT22;1766;53.490;10.174;2022-10-23T12:13:00;27.00;48.80
3504;DHT22;1766;53.490;10.174;2022-10-23T12:15:16;27.20;48.40
3504;DHT22;1766;53.490;10.174;2022-10-23T12:17:32;27.50;47.60
3504;DHT22;1766;53.490;10.174;2022-10-23T12:19:46;27.80;47.20
3504;DHT22;1766;53.490;10.174;2022-10-23T12:21:50;28.10;46.70
3504;DHT22;1766;53.490;10.174;2022-10-23T12:24:12;28.40;46.40
3504;DHT22;1766;53.490;10.174;2022-10-23T12:26:43;28.50;45.50
3504;DHT22;1766;53.490;10.174;2022-10-23T12:28:56;28.80;45.00
3504;DHT22;1766;53.490;10.174;2022-10-23T12:31:14;28.80;44.50
3504;DHT22;1766;53.490;10.174;2022-10-23T12:33:25;28.60;44.30
3504;DHT22;1766;53.490;10.174;2022-10-23T12:35:49;28.40;44.10
3504;DHT22;1766;53.490;10.174;2022-10-23T12:38:12;28.10;44.20
3504;DHT22;1766;53.490;10.174;2022-10-23T12:40:16;28.00;44.40
3504;DHT22;1766;53.490;10.174;2022-10-23T12:42:28;28.00;44.20
3504;DHT22;1766;53.490;10.174;2022-10-23T12:44:30;28.00;44.10
3504;DHT22;1766;53.490;10.174;2022-10-23T12:46:33;27.90;44.20
3504;DHT22;1766;53.490;10.174;2022-10-23T12:48:46;27.80;44.20
3504;DHT22;1766;53.490;10.174;2022-10-23T12:50:52;27.70;44.20
3504;DHT22;1766;53.490;10.174;2022-10-23T12:52:56;27.60;44.20
3504;DHT22;1766;53.490;10.174;2022-10-23T12:55:11;27.60;44.20
3504;DHT22;1766;53.490;10.174;2022-10-23T12:57:19;27.40;44.30
3504;DHT22;1766;53.490;10.174;2022-10-23T12:59:25;27.40;44.40
3504;DHT22;1766;53.490;10.174;2022-10-23T13:01:29;27.30;44.50
3504;DHT22;1766;53.490;10.174;2022-10-23T13:03:33;27.20;44.40
3504;DHT22;1766;53.490;10.174;2022-10-23T13:05:36;27.00;44.40
3504;DHT22;1766;53.490;10.174;2022-10-23T13:07:42;26.90;44.40
3504;DHT22;1766;53.490;10.174;2022-10-23T13:09:46;26.70;44.50
3504;DHT22;1766;53.490;10.174;2022-10-23T13:11:49;26.60;44.70
3504;DHT22;1766;53.490;10.174;2022-10-23T13:13:52;26.40;44.90
3504;DHT22;1766;53.490;10.174;2022-10-23T13:15:54;26.30;44.90
3504;DHT22;1766;53.490;10.174;2022-10-23T13:18:01;26.30;44.90
3504;DHT22;1766;53.490;10.174;2022-10-23T13:20:09;26.10;45.00
3504;DHT22;1766;53.490;10.174;2022-10-23T13:22:18;26.00;45.10
3504;DHT22;1766;53.490;10.174;2022-10-23T13:24:25;25.90;45.20
3504;DHT22;1766;53.490;10.174;2022-10-23T13:26:31;25.80;45.30
3504;DHT22;1766;53.490;10.174;2022-10-23T13:28:40;25.80;45.50
3504;DHT22;1766;53.490;10.174;2022-10-23T13:30:44;25.60;45.50
3504;DHT22;1766;53.490;10.174;2022-10-23T13:32:46;25.50;45.60